createdAt,value
2023-04-11T00:00:53.867Z,100790.88
2023-04-11T00:05:53.574Z,100769.94
2023-04-11T00:10:52.906Z,100810.72
2023-04-11T00:15:55.956Z,100780.75
2023-04-11T00:20:54.473Z,100794.72
2023-04-11T00:25:55.966Z,100792.44
2023-04-11T00:30:57.684Z,100739.00
2023-04-11T00:35:58.561Z,100740.75
2023-04-11T00:40:59.947Z,100741.09
2023-04-11T00:46:02.106Z,100749.25
2023-04-11T00:51:05.790Z,100766.72
2023-04-11T00:56:04.989Z,100780.09
2023-04-11T01:01:16.247Z,100786.78
2023-04-11T01:06:18.244Z,100748.75
2023-04-11T01:11:20.863Z,100738.97
2023-04-11T01:16:22.432Z,100743.38
2023-04-11T01:21:24.783Z,100721.03
2023-04-11T01:26:24.015Z,100736.69
2023-04-11T01:31:24.669Z,100746.97
2023-04-11T01:36:23.973Z,100752.97
2023-04-11T01:41:25.170Z,100685.72
2023-04-11T01:46:28.087Z,100712.03
2023-04-11T01:51:32.092Z,100713.16
2023-04-11T01:56:35.414Z,100714.16
2023-04-11T02:01:37.260Z,100694.91
2023-04-11T02:06:34.782Z,100682.47
2023-04-11T02:11:33.166Z,100689.69
2023-04-11T02:16:34.698Z,100654.38
2023-04-11T02:21:34.876Z,100697.97
2023-04-11T02:26:35.373Z,100706.81
2023-04-11T02:31:36.538Z,100701.44
2023-04-11T02:36:34.915Z,100659.84
2023-04-11T02:41:38.756Z,100671.59
2023-04-11T02:46:41.308Z,100683.31
2023-04-11T02:51:43.245Z,100676.78
2023-04-11T02:56:44.454Z,100649.81
2023-04-11T03:01:45.573Z,100613.63
2023-04-11T03:06:48.031Z,100647.09
2023-04-11T03:11:48.234Z,100626.41
2023-04-11T03:16:47.714Z,100655.09
2023-04-11T03:21:48.866Z,100655.59
2023-04-11T03:26:51.268Z,100645.34
2023-04-11T03:31:53.524Z,100636.34
2023-04-11T03:36:55.901Z,100616.13
2023-04-11T03:41:58.474Z,100601.56
2023-04-11T03:46:58.709Z,100595.91
2023-04-11T03:52:07.802Z,100624.75
2023-04-11T03:57:09.859Z,100604.06
2023-04-11T04:02:21.846Z,100614.03
2023-04-11T04:07:42.865Z,100588.91
2023-04-11T04:12:55.764Z,100593.66
2023-04-11T04:17:56.484Z,100549.97
2023-04-11T04:23:08.457Z,100599.69
2023-04-11T04:28:27.634Z,100584.19
2023-04-11T04:33:33.339Z,100576.53
2023-04-11T04:38:38.665Z,100583.66
2023-04-11T04:43:42.229Z,100560.88
2023-04-11T04:48:47.521Z,100554.22
2023-04-11T04:53:51.216Z,100579.78
2023-04-11T04:59:28.382Z,100539.69
2023-04-11T05:04:43.388Z,100558.13
2023-04-11T05:09:43.153Z,100565.44
2023-04-11T05:15:03.560Z,100548.44
2023-04-11T05:20:13.177Z,100570.28
2023-04-11T05:25:35.265Z,100537.88
2023-04-11T05:30:43.609Z,100550.16
2023-04-11T05:35:46.046Z,100552.84
2023-04-11T05:41:06.573Z,100526.91
2023-04-11T05:46:44.369Z,100531.78
2023-04-11T05:51:43.325Z,100530.97
2023-04-11T05:56:46.439Z,100514.19
2023-04-11T06:02:01.545Z,100510.84
2023-04-11T06:07:07.059Z,100511.09
2023-04-11T06:12:11.678Z,100526.44
2023-04-11T06:17:11.215Z,100537.69
2023-04-11T06:22:11.115Z,100534.22
2023-04-11T06:27:12.873Z,100491.56
2023-04-11T06:32:14.389Z,100503.50
2023-04-11T06:37:19.583Z,100507.47
2023-04-11T06:42:33.937Z,100505.34
2023-04-11T06:47:38.590Z,100460.41
2023-04-11T06:52:38.326Z,100464.00
2023-04-11T06:57:39.475Z,100450.94
2023-04-11T07:02:39.785Z,100494.91
2023-04-11T07:07:45.251Z,100469.84
2023-04-11T07:12:55.233Z,100441.34
2023-04-11T07:17:55.804Z,100484.34
2023-04-11T07:22:56.919Z,100478.09
2023-04-11T07:28:15.563Z,100481.00
2023-04-11T07:33:17.668Z,100446.00
2023-04-11T07:38:32.820Z,100435.03
2023-04-11T07:43:39.387Z,100463.66
2023-04-11T07:48:37.253Z,100445.97
2023-04-11T07:53:43.380Z,100421.81
2023-04-11T08:04:18.072Z,100435.34
2023-04-11T08:09:24.159Z,100432.28
2023-04-11T08:14:22.933Z,100413.38
2023-04-11T08:19:21.502Z,100412.16
2023-04-11T08:24:29.021Z,100419.00
2023-04-11T08:29:30.318Z,100392.44
2023-04-11T08:34:34.748Z,100406.13
2023-04-11T08:39:36.892Z,100371.50
2023-04-11T08:44:38.410Z,100364.06
2023-04-11T08:49:36.738Z,100366.44
2023-04-11T08:54:36.019Z,100315.38
2023-04-11T08:59:36.359Z,100343.75
2023-04-11T09:04:43.294Z,100309.25
2023-04-11T09:09:48.983Z,100305.50
2023-04-11T09:14:50.410Z,100311.00
2023-04-11T09:20:26.726Z,100312.44
2023-04-11T09:25:27.503Z,100321.50
2023-04-11T09:30:27.077Z,100301.50
2023-04-11T09:35:29.038Z,100286.94
2023-04-11T09:40:42.447Z,100256.25
2023-04-11T09:45:53.549Z,100255.91
2023-04-11T09:51:07.826Z,100249.22
2023-04-11T09:56:12.291Z,100243.94
2023-04-11T10:01:11.147Z,100268.13
2023-04-11T10:06:26.769Z,100255.59
2023-04-11T10:11:30.075Z,100228.34
2023-04-11T10:16:33.194Z,100288.13
2023-04-11T10:21:33.046Z,100279.72
2023-04-11T10:26:58.027Z,100257.34
2023-04-11T10:32:19.517Z,100273.97
2023-04-11T10:37:33.601Z,100259.47
2023-04-11T10:42:36.008Z,100245.22
2023-04-11T10:47:34.413Z,100218.00
2023-04-11T10:52:42.034Z,100237.91
2023-04-11T10:58:06.726Z,100225.28
2023-04-11T11:08:39.284Z,100245.28
2023-04-11T11:13:48.080Z,100237.63
2023-04-11T11:18:51.733Z,100203.22
2023-04-11T11:23:59.750Z,100220.31
2023-04-11T11:28:57.786Z,100176.63
2023-04-11T11:34:18.478Z,100151.97
2023-04-11T11:39:30.865Z,100154.59
2023-04-11T11:44:31.269Z,100178.50
2023-04-11T11:49:48.785Z,100148.63
2023-04-11T11:54:48.368Z,100158.88
2023-04-11T11:59:54.771Z,100172.00
2023-04-11T12:05:00.522Z,100170.00
2023-04-11T12:10:12.116Z,100149.56
2023-04-11T12:15:16.193Z,100196.13
2023-04-11T12:20:27.475Z,100208.44
2023-04-11T12:25:31.439Z,100167.28
2023-04-11T12:30:42.405Z,100178.13
2023-04-11T12:35:40.466Z,100177.34
2023-04-11T12:41:20.280Z,100199.00
2023-04-11T12:46:36.409Z,100158.94
2023-04-11T12:57:16.165Z,100161.25
2023-04-11T13:02:42.075Z,100162.66
2023-04-11T13:07:45.340Z,100146.91
2023-04-11T13:13:05.363Z,100146.56
2023-04-11T13:18:53.405Z,100150.72
2023-04-11T13:29:21.616Z,100131.69
2023-04-11T13:34:19.619Z,100136.81
2023-04-11T13:39:30.482Z,100121.94
2023-04-11T13:44:39.831Z,100123.28
2023-04-11T13:49:42.467Z,100103.09
2023-04-11T13:54:47.844Z,100142.16
2023-04-11T13:59:49.983Z,100114.59
2023-04-11T14:05:03.250Z,100107.66
2023-04-11T14:10:05.558Z,100126.94
2023-04-11T14:15:33.463Z,100097.31
2023-04-11T14:20:38.730Z,100091.22
2023-04-11T14:25:40.257Z,100086.81
2023-04-11T14:30:42.558Z,100109.72
2023-04-11T14:35:50.746Z,100088.47
2023-04-11T14:40:52.638Z,100094.84
2023-04-11T14:45:58.646Z,100088.50
2023-04-11T14:51:04.818Z,100114.22
2023-04-11T14:56:06.615Z,100070.50
2023-04-11T15:01:04.816Z,100085.91
2023-04-11T15:06:06.600Z,100082.81
2023-04-11T15:11:08.309Z,100085.16
2023-04-11T15:16:06.661Z,100065.97
2023-04-11T15:21:05.193Z,100057.94
2023-04-11T15:26:04.494Z,100050.28
2023-04-11T15:31:02.916Z,100090.06
2023-04-11T15:36:04.992Z,100071.78
2023-04-11T15:41:03.733Z,100050.03
2023-04-11T15:46:07.480Z,100064.84
2023-04-11T15:51:11.336Z,100073.97
2023-04-11T15:56:10.463Z,100040.66
2023-04-11T16:01:21.107Z,100038.78
2023-04-11T16:06:23.280Z,100029.53
2023-04-11T16:11:28.163Z,100020.56
2023-04-11T16:16:30.733Z,100039.31
2023-04-11T16:28:00.511Z,100054.59
2023-04-11T16:33:13.000Z,100039.03
2023-04-11T16:38:16.469Z,100043.81
2023-04-11T16:43:14.674Z,100074.03
2023-04-11T16:48:15.207Z,100046.75
2023-04-11T16:53:16.445Z,100044.38
2023-04-11T16:58:18.368Z,100062.16
2023-04-11T17:03:19.972Z,100080.34
2023-04-11T17:08:18.420Z,100057.59
2023-04-11T17:13:19.218Z,100059.56
2023-04-11T17:18:19.903Z,100041.19
2023-04-11T17:23:31.948Z,100036.56
2023-04-11T17:28:41.201Z,100053.88
2023-04-11T17:33:42.684Z,100078.78
2023-04-11T17:38:44.074Z,100028.19
2023-04-11T17:43:43.856Z,100072.25
2023-04-11T17:48:45.094Z,100029.81
2023-04-11T17:53:43.874Z,100031.13
2023-04-11T17:58:48.851Z,100022.91
2023-04-11T18:03:50.582Z,100039.13
2023-04-11T18:08:51.363Z,100021.69
2023-04-11T18:13:50.728Z,100069.38
2023-04-11T18:18:49.536Z,100045.88
2023-04-11T18:23:59.659Z,100024.81
2023-04-11T18:29:03.654Z,100041.63
2023-04-11T18:34:03.598Z,100028.22
2023-04-11T18:39:07.419Z,100069.81
2023-04-11T18:49:37.165Z,100039.41
2023-04-11T18:54:44.329Z,100032.66
2023-04-11T18:59:50.154Z,100055.91
2023-04-11T19:04:59.709Z,100046.19
2023-04-11T19:10:00.473Z,100077.59
2023-04-11T19:15:02.755Z,100067.88
2023-04-11T19:25:23.245Z,100075.41
2023-04-11T19:30:22.189Z,100017.47
2023-04-11T19:35:27.487Z,100057.78
2023-04-11T19:40:28.262Z,100013.75
2023-04-11T19:45:35.092Z,100044.47
2023-04-11T19:50:35.159Z,100022.94
2023-04-11T19:55:35.928Z,100022.31
2023-04-11T20:00:38.217Z,100009.16
2023-04-11T20:05:38.205Z,100001.28
2023-04-11T20:10:39.463Z,100018.69
2023-04-11T20:15:41.149Z,99983.94
2023-04-11T20:20:40.677Z,99996.53
2023-04-11T20:25:39.482Z,100026.81
2023-04-11T20:30:43.580Z,99998.66
2023-04-11T20:35:46.929Z,99974.88
2023-04-11T20:40:52.404Z,100008.91
2023-04-11T20:45:56.153Z,99988.13
2023-04-11T20:51:02.087Z,99979.94
2023-04-11T20:56:04.686Z,99938.75
2023-04-11T21:01:06.181Z,99997.09
2023-04-11T21:06:07.675Z,99967.81
2023-04-11T21:11:06.538Z,99932.84
2023-04-11T21:16:15.716Z,99943.31
2023-04-11T21:21:14.735Z,99943.22
2023-04-11T21:26:17.428Z,99958.53
2023-04-11T21:31:17.637Z,99934.50
2023-04-11T21:36:19.646Z,99942.88
2023-04-11T21:41:20.809Z,99948.91
2023-04-11T21:46:23.502Z,99946.72
2023-04-11T21:51:26.874Z,99945.28
2023-04-11T21:56:26.218Z,99964.81
2023-04-11T22:01:29.297Z,99938.66
2023-04-11T22:06:33.375Z,99934.34
2023-04-11T22:11:42.759Z,99930.00
2023-04-11T22:16:44.420Z,99944.03
2023-04-11T22:21:48.736Z,99923.78
2023-04-11T22:26:49.413Z,99954.38
2023-04-11T22:31:52.461Z,99935.31
2023-04-11T22:36:57.947Z,99926.47
2023-04-11T22:41:56.765Z,99935.41
2023-04-11T22:47:25.454Z,99911.28
2023-04-11T22:52:28.421Z,99916.91
2023-04-11T22:57:29.284Z,99906.53
2023-04-11T23:02:32.060Z,99920.84
2023-04-11T23:07:34.942Z,99925.06
2023-04-11T23:12:35.020Z,99919.34
2023-04-11T23:17:38.098Z,99905.19
2023-04-11T23:22:37.365Z,99919.75
2023-04-11T23:27:39.066Z,99915.28
2023-04-11T23:32:47.533Z,99877.66
2023-04-11T23:37:50.129Z,99903.66
2023-04-11T23:42:51.724Z,99901.69
2023-04-11T23:47:54.841Z,99920.31
2023-04-11T23:52:57.651Z,99877.59
2023-04-11T23:57:58.691Z,99909.06
